GLO1386 SBGR-SBVT
Flight info
| Callsign | GLO1386 |
|---|---|
| Flight time | 1h 4m |
| Altitude | 37000 |
| Route | UREMI UZ42 IMDAB DCT SEGLI DCT TODET |
| Aircraft | B38M/M-SDE1FGHILORVWXY/HB1 |
Departure
| Time | 2026-05-07 21:18 |
|---|---|
| Airport | São Paulo/Guarulhos–Governor André Franco Montoro International Airport (SBGR) |
Arrival
| Time | 2026-05-07 22:23 |
|---|---|
| Airport | Eurico de Aguiar Salles International Airport (SBVT) |
| Time | Latitude | Longitude | Altitude | Speed | Heading |
|---|---|---|---|---|---|
| 2026-05-07 20:46 | -23.42897 | -46.47939 | 2457 ft | 0 kts | 301° |
| 2026-05-07 21:06 | -23.42898 | -46.47939 | 2457 ft | 0 kts | 301° |
| 2026-05-07 21:07 | -23.42901 | -46.47933 | 2457 ft | 2 kts | 289° |
| 2026-05-07 21:07 | -23.42904 | -46.47915 | 2460 ft | 2 kts | 262° |
| 2026-05-07 21:07 | -23.42897 | -46.47900 | 2457 ft | 2 kts | 210° |
| 2026-05-07 21:08 | -23.42896 | -46.47899 | 2457 ft | 0 kts | 208° |
| 2026-05-07 21:13 | -23.42909 | -46.47899 | 2457 ft | 4 kts | 164° |
| 2026-05-07 21:13 | -23.42937 | -46.47868 | 2461 ft | 7 kts | 131° |
| 2026-05-07 21:14 | -23.42981 | -46.47827 | 2461 ft | 9 kts | 156° |
| 2026-05-07 21:14 | -23.43036 | -46.47857 | 2464 ft | 10 kts | 239° |
| 2026-05-07 21:14 | -23.43064 | -46.47936 | 2458 ft | 12 kts | 251° |
| 2026-05-07 21:14 | -23.43091 | -46.48030 | 2461 ft | 14 kts | 254° |
| 2026-05-07 21:15 | -23.43119 | -46.48138 | 2459 ft | 16 kts | 254° |
| 2026-05-07 21:15 | -23.43151 | -46.48257 | 2457 ft | 17 kts | 253° |
| 2026-05-07 21:15 | -23.43182 | -46.48355 | 2460 ft | 12 kts | 236° |
| 2026-05-07 21:15 | -23.43258 | -46.48377 | 2463 ft | 13 kts | 166° |
| 2026-05-07 21:16 | -23.43294 | -46.48366 | 2461 ft | 0 kts | 164° |
| 2026-05-07 21:16 | -23.43299 | -46.48365 | 2461 ft | 2 kts | 164° |
| 2026-05-07 21:17 | -23.43321 | -46.48358 | 2461 ft | 5 kts | 164° |
| 2026-05-07 21:17 | -23.43373 | -46.48341 | 2459 ft | 11 kts | 163° |
| 2026-05-07 21:17 | -23.43409 | -46.48262 | 2460 ft | 16 kts | 76° |
| 2026-05-07 21:17 | -23.43363 | -46.48087 | 2461 ft | 45 kts | 73° |
| 2026-05-07 21:18 | -23.43203 | -46.47511 | 2456 ft | 112 kts | 74° |
| 2026-05-07 21:18 | -23.42915 | -46.46532 | 2523 ft | 152 kts | 70° |
| 2026-05-07 21:18 | -23.42662 | -46.45393 | 3006 ft | 162 kts | 73° |
| 2026-05-07 21:18 | -23.42314 | -46.44130 | 3436 ft | 180 kts | 70° |
| 2026-05-07 21:19 | -23.41954 | -46.42855 | 4171 ft | 180 kts | 68° |
| 2026-05-07 21:19 | -23.41566 | -46.41516 | 4747 ft | 189 kts | 67° |
| 2026-05-07 21:19 | -23.41133 | -46.40103 | 5197 ft | 207 kts | 67° |
| 2026-05-07 21:19 | -23.40694 | -46.38520 | 5540 ft | 231 kts | 74° |
| 2026-05-07 21:20 | -23.40589 | -46.36679 | 5866 ft | 256 kts | 86° |
| 2026-05-07 21:20 | -23.40588 | -46.34707 | 6444 ft | 262 kts | 85° |
| 2026-05-07 21:20 | -23.40574 | -46.32707 | 7157 ft | 266 kts | 85° |
| 2026-05-07 21:20 | -23.40551 | -46.30688 | 7979 ft | 272 kts | 85° |
| 2026-05-07 21:21 | -23.40519 | -46.28569 | 8510 ft | 289 kts | 85° |
| 2026-05-07 21:21 | -23.40482 | -46.26349 | 9258 ft | 294 kts | 85° |
| 2026-05-07 21:21 | -23.40441 | -46.24117 | 10108 ft | 297 kts | 85° |
| 2026-05-07 21:21 | -23.40398 | -46.21813 | 10631 ft | 313 kts | 85° |
| 2026-05-07 21:22 | -23.40352 | -46.19399 | 11198 ft | 325 kts | 86° |
| 2026-05-07 21:22 | -23.40305 | -46.16935 | 12056 ft | 325 kts | 86° |
| 2026-05-07 21:22 | -23.40259 | -46.14462 | 12948 ft | 327 kts | 86° |
| 2026-05-07 21:22 | -23.40211 | -46.11980 | 13823 ft | 329 kts | 86° |
| 2026-05-07 21:23 | -23.40163 | -46.09510 | 14592 ft | 332 kts | 86° |
| 2026-05-07 21:23 | -23.40113 | -46.06982 | 15335 ft | 337 kts | 86° |
| 2026-05-07 21:23 | -23.40062 | -46.04417 | 16048 ft | 342 kts | 86° |
| 2026-05-07 21:23 | -23.40010 | -46.01813 | 16765 ft | 346 kts | 86° |
| 2026-05-07 21:24 | -23.39956 | -45.99174 | 17446 ft | 351 kts | 87° |
| 2026-05-07 21:24 | -23.39902 | -45.96500 | 18143 ft | 355 kts | 87° |
| 2026-05-07 21:24 | -23.39847 | -45.93792 | 18752 ft | 360 kts | 87° |
| 2026-05-07 21:24 | -23.39790 | -45.91044 | 19297 ft | 366 kts | 87° |
| 2026-05-07 21:25 | -23.39732 | -45.88250 | 19845 ft | 371 kts | 88° |
| 2026-05-07 21:25 | -23.39673 | -45.85421 | 20393 ft | 376 kts | 88° |
| 2026-05-07 21:25 | -23.39612 | -45.82551 | 20939 ft | 381 kts | 88° |
| 2026-05-07 21:25 | -23.39550 | -45.79642 | 21471 ft | 386 kts | 88° |
| 2026-05-07 21:26 | -23.39486 | -45.76698 | 22000 ft | 391 kts | 88° |
| 2026-05-07 21:26 | -23.39421 | -45.73717 | 22505 ft | 396 kts | 88° |
| 2026-05-07 21:26 | -23.39355 | -45.70699 | 23029 ft | 401 kts | 88° |
| 2026-05-07 21:26 | -23.39289 | -45.67682 | 23538 ft | 406 kts | 88° |
| 2026-05-07 21:27 | -23.39219 | -45.64551 | 23977 ft | 410 kts | 89° |
| 2026-05-07 21:27 | -23.39150 | -45.61478 | 24445 ft | 413 kts | 89° |
| 2026-05-07 21:27 | -23.39078 | -45.58349 | 24915 ft | 415 kts | 89° |
| 2026-05-07 21:27 | -23.39006 | -45.55180 | 25365 ft | 419 kts | 89° |
| 2026-05-07 21:28 | -23.38920 | -45.52004 | 25807 ft | 422 kts | 86° |
| 2026-05-07 21:28 | -23.38393 | -45.48860 | 26245 ft | 425 kts | 76° |
| 2026-05-07 21:28 | -23.37716 | -45.45715 | 26663 ft | 428 kts | 78° |
| 2026-05-07 21:28 | -23.37048 | -45.42546 | 27072 ft | 431 kts | 78° |
| 2026-05-07 21:29 | -23.36368 | -45.39351 | 27515 ft | 435 kts | 77° |
| 2026-05-07 21:29 | -23.35400 | -45.36221 | 27925 ft | 438 kts | 66° |
| 2026-05-07 21:29 | -23.34219 | -45.33157 | 28284 ft | 442 kts | 69° |
| 2026-05-07 21:29 | -23.33099 | -45.30027 | 28709 ft | 445 kts | 69° |
| 2026-05-07 21:30 | -23.31990 | -45.26874 | 29100 ft | 448 kts | 70° |
| 2026-05-07 21:30 | -23.30881 | -45.23690 | 29477 ft | 451 kts | 70° |
| 2026-05-07 21:30 | -23.29768 | -45.20484 | 29861 ft | 455 kts | 70° |
| 2026-05-07 21:30 | -23.28646 | -45.17253 | 30209 ft | 458 kts | 70° |
| 2026-05-07 21:31 | -23.27534 | -45.14046 | 30540 ft | 461 kts | 70° |
| 2026-05-07 21:31 | -23.26397 | -45.10778 | 30860 ft | 463 kts | 70° |
| 2026-05-07 21:31 | -23.25255 | -45.07494 | 31192 ft | 466 kts | 71° |
| 2026-05-07 21:31 | -23.24105 | -45.04188 | 31506 ft | 469 kts | 71° |
| 2026-05-07 21:32 | -23.22948 | -45.00865 | 31835 ft | 471 kts | 71° |
| 2026-05-07 21:32 | -23.21784 | -44.97527 | 32146 ft | 474 kts | 71° |
| 2026-05-07 21:32 | -23.20608 | -44.94157 | 32485 ft | 476 kts | 71° |
| 2026-05-07 21:32 | -23.19431 | -44.90786 | 32809 ft | 478 kts | 71° |
| 2026-05-07 21:33 | -23.18250 | -44.87402 | 33137 ft | 480 kts | 71° |
| 2026-05-07 21:33 | -23.17061 | -44.84004 | 33456 ft | 482 kts | 71° |
| 2026-05-07 21:33 | -23.15867 | -44.80591 | 33779 ft | 484 kts | 71° |
| 2026-05-07 21:33 | -23.14668 | -44.77166 | 34076 ft | 486 kts | 71° |
| 2026-05-07 21:34 | -23.13461 | -44.73724 | 34340 ft | 489 kts | 71° |
| 2026-05-07 21:34 | -23.12247 | -44.70262 | 34574 ft | 491 kts | 71° |
| 2026-05-07 21:34 | -23.11028 | -44.66791 | 34864 ft | 492 kts | 71° |
| 2026-05-07 21:34 | -23.09810 | -44.63324 | 35159 ft | 492 kts | 71° |
| 2026-05-07 21:35 | -23.08601 | -44.59886 | 35448 ft | 493 kts | 71° |
| 2026-05-07 21:35 | -23.07379 | -44.56412 | 35728 ft | 494 kts | 71° |
| 2026-05-07 21:35 | -23.06150 | -44.52923 | 35997 ft | 494 kts | 71° |
| 2026-05-07 21:35 | -23.04919 | -44.49430 | 36259 ft | 495 kts | 71° |
| 2026-05-07 21:36 | -23.03687 | -44.45938 | 36505 ft | 496 kts | 71° |
| 2026-05-07 21:36 | -23.02452 | -44.42440 | 36770 ft | 496 kts | 72° |
| 2026-05-07 21:36 | -23.01214 | -44.38935 | 36986 ft | 498 kts | 72° |
| 2026-05-07 21:36 | -22.99971 | -44.35423 | 37020 ft | 499 kts | 72° |
| 2026-05-07 21:37 | -22.97489 | -44.28410 | 36999 ft | 496 kts | 72° |
| 2026-05-07 21:37 | -22.95011 | -44.21424 | 36992 ft | 496 kts | 72° |
| 2026-05-07 21:38 | -22.92530 | -44.14438 | 36967 ft | 496 kts | 72° |
| 2026-05-07 21:38 | -22.90042 | -44.07445 | 36988 ft | 496 kts | 72° |
| 2026-05-07 21:39 | -22.87570 | -44.00504 | 36960 ft | 496 kts | 72° |
| 2026-05-07 21:39 | -22.85077 | -43.93519 | 36948 ft | 497 kts | 72° |
| 2026-05-07 21:40 | -22.82579 | -43.86530 | 36960 ft | 496 kts | 72° |
| 2026-05-07 21:40 | -22.80083 | -43.79559 | 36952 ft | 496 kts | 72° |
| 2026-05-07 21:41 | -22.77581 | -43.72581 | 36945 ft | 497 kts | 72° |
| 2026-05-07 21:41 | -22.75072 | -43.65596 | 36963 ft | 497 kts | 72° |
| 2026-05-07 21:42 | -22.72566 | -43.58630 | 36975 ft | 497 kts | 72° |
| 2026-05-07 21:42 | -22.70046 | -43.51635 | 36973 ft | 497 kts | 72° |
| 2026-05-07 21:43 | -22.67545 | -43.44703 | 36987 ft | 497 kts | 72° |
| 2026-05-07 21:43 | -22.65023 | -43.37724 | 36996 ft | 497 kts | 72° |
| 2026-05-07 21:44 | -22.62502 | -43.30759 | 36979 ft | 497 kts | 72° |
| 2026-05-07 21:44 | -22.59974 | -43.23786 | 36982 ft | 497 kts | 72° |
| 2026-05-07 21:45 | -22.57448 | -43.16831 | 36990 ft | 496 kts | 72° |
| 2026-05-07 21:45 | -22.54919 | -43.09875 | 37023 ft | 497 kts | 72° |
| 2026-05-07 21:46 | -22.52398 | -43.02953 | 36997 ft | 495 kts | 72° |
| 2026-05-07 21:46 | -22.49866 | -42.96016 | 37037 ft | 496 kts | 72° |
| 2026-05-07 21:47 | -22.47333 | -42.89079 | 37040 ft | 496 kts | 72° |
| 2026-05-07 21:47 | -22.44795 | -42.82146 | 37047 ft | 495 kts | 72° |
| 2026-05-07 21:48 | -22.42260 | -42.75227 | 37067 ft | 495 kts | 72° |
| 2026-05-07 21:48 | -22.39718 | -42.68298 | 37061 ft | 495 kts | 72° |
| 2026-05-07 21:49 | -22.37178 | -42.61390 | 37063 ft | 494 kts | 72° |
| 2026-05-07 21:49 | -22.35064 | -42.55647 | 37062 ft | 494 kts | 72° |
| 2026-05-07 21:50 | -22.32107 | -42.47625 | 37060 ft | 494 kts | 72° |
| 2026-05-07 21:50 | -22.29948 | -42.41862 | 37065 ft | 495 kts | 68° |
| 2026-05-07 21:51 | -22.28129 | -42.38745 | 37069 ft | 499 kts | 54° |
| 2026-05-07 21:51 | -22.26036 | -42.35744 | 37056 ft | 501 kts | 56° |
| 2026-05-07 21:51 | -22.21866 | -42.29716 | 37070 ft | 501 kts | 56° |
| 2026-05-07 21:52 | -22.17644 | -42.23711 | 37058 ft | 501 kts | 55° |
| 2026-05-07 21:52 | -22.13428 | -42.17732 | 37085 ft | 501 kts | 56° |
| 2026-05-07 21:53 | -22.09229 | -42.11781 | 37058 ft | 500 kts | 56° |
| 2026-05-07 21:53 | -22.05006 | -42.05806 | 37076 ft | 502 kts | 56° |
| 2026-05-07 21:54 | -22.00793 | -41.99847 | 37070 ft | 501 kts | 56° |
| 2026-05-07 21:54 | -21.96555 | -41.93864 | 37070 ft | 501 kts | 56° |
| 2026-05-07 21:55 | -21.94447 | -41.90889 | 36864 ft | 497 kts | 56° |
| 2026-05-07 21:55 | -21.92338 | -41.87915 | 35926 ft | 503 kts | 56° |
| 2026-05-07 21:55 | -21.90193 | -41.84891 | 34957 ft | 511 kts | 55° |
| 2026-05-07 21:55 | -21.88035 | -41.81852 | 34311 ft | 510 kts | 56° |
| 2026-05-07 21:56 | -21.85893 | -41.78836 | 33905 ft | 502 kts | 55° |
| 2026-05-07 21:56 | -21.83792 | -41.75879 | 33427 ft | 496 kts | 56° |
| 2026-05-07 21:56 | -21.81704 | -41.72942 | 32861 ft | 492 kts | 55° |
| 2026-05-07 21:56 | -21.79631 | -41.70030 | 32338 ft | 487 kts | 55° |
| 2026-05-07 21:57 | -21.77570 | -41.67134 | 31824 ft | 484 kts | 55° |
| 2026-05-07 21:57 | -21.75562 | -41.64314 | 31322 ft | 480 kts | 55° |
| 2026-05-07 21:57 | -21.73537 | -41.61471 | 30810 ft | 476 kts | 56° |
| 2026-05-07 21:57 | -21.71527 | -41.58652 | 30311 ft | 473 kts | 56° |
| 2026-05-07 21:58 | -21.69531 | -41.55855 | 29751 ft | 470 kts | 55° |
| 2026-05-07 21:58 | -21.67552 | -41.53081 | 29211 ft | 466 kts | 55° |
| 2026-05-07 21:58 | -21.65588 | -41.50332 | 28725 ft | 460 kts | 55° |
| 2026-05-07 21:58 | -21.63649 | -41.47616 | 28256 ft | 455 kts | 55° |
| 2026-05-07 21:59 | -21.61731 | -41.44933 | 27782 ft | 451 kts | 55° |
| 2026-05-07 21:59 | -21.59829 | -41.42273 | 27318 ft | 446 kts | 55° |
| 2026-05-07 21:59 | -21.57945 | -41.39639 | 26862 ft | 442 kts | 55° |
| 2026-05-07 21:59 | -21.56081 | -41.37035 | 26412 ft | 438 kts | 54° |
| 2026-05-07 22:00 | -21.54233 | -41.34454 | 25973 ft | 434 kts | 54° |
| 2026-05-07 22:00 | -21.52400 | -41.31895 | 25540 ft | 430 kts | 54° |
| 2026-05-07 22:00 | -21.50587 | -41.29364 | 25102 ft | 423 kts | 54° |
| 2026-05-07 22:00 | -21.48662 | -41.27031 | 24631 ft | 412 kts | 41° |
| 2026-05-07 22:01 | -21.46445 | -41.25141 | 24242 ft | 399 kts | 40° |
| 2026-05-07 22:01 | -21.44358 | -41.23303 | 23864 ft | 387 kts | 40° |
| 2026-05-07 22:01 | -21.42301 | -41.21487 | 23449 ft | 377 kts | 40° |
| 2026-05-07 22:01 | -21.40307 | -41.19727 | 23026 ft | 366 kts | 40° |
| 2026-05-07 22:02 | -21.38374 | -41.18020 | 22645 ft | 355 kts | 40° |
| 2026-05-07 22:02 | -21.36494 | -41.16362 | 22304 ft | 346 kts | 41° |
| 2026-05-07 22:02 | -21.34641 | -41.14727 | 21944 ft | 344 kts | 41° |
| 2026-05-07 22:02 | -21.32799 | -41.13103 | 21565 ft | 342 kts | 40° |
| 2026-05-07 22:03 | -21.30965 | -41.11487 | 21216 ft | 340 kts | 40° |
| 2026-05-07 22:03 | -21.29138 | -41.09879 | 20843 ft | 339 kts | 40° |
| 2026-05-07 22:03 | -21.27318 | -41.08278 | 20516 ft | 337 kts | 40° |
| 2026-05-07 22:03 | -21.25537 | -41.06711 | 20185 ft | 335 kts | 40° |
| 2026-05-07 22:04 | -21.23714 | -41.05108 | 19843 ft | 333 kts | 40° |
| 2026-05-07 22:04 | -21.21951 | -41.03558 | 19508 ft | 332 kts | 40° |
| 2026-05-07 22:04 | -21.20170 | -41.01993 | 19164 ft | 330 kts | 40° |
| 2026-05-07 22:04 | -21.18398 | -41.00436 | 18827 ft | 329 kts | 40° |
| 2026-05-07 22:05 | -21.16632 | -40.98885 | 18488 ft | 328 kts | 39° |
| 2026-05-07 22:05 | -21.14869 | -40.97337 | 18120 ft | 326 kts | 39° |
| 2026-05-07 22:05 | -21.13119 | -40.95801 | 17751 ft | 325 kts | 39° |
| 2026-05-07 22:05 | -21.11379 | -40.94274 | 17403 ft | 322 kts | 39° |
| 2026-05-07 22:06 | -21.09650 | -40.92758 | 17070 ft | 319 kts | 39° |
| 2026-05-07 22:06 | -21.07938 | -40.91257 | 16744 ft | 317 kts | 39° |
| 2026-05-07 22:06 | -21.06237 | -40.89765 | 16376 ft | 316 kts | 39° |
| 2026-05-07 22:06 | -21.04542 | -40.88279 | 16034 ft | 314 kts | 39° |
| 2026-05-07 22:07 | -21.02862 | -40.86807 | 15723 ft | 311 kts | 39° |
| 2026-05-07 22:07 | -21.01193 | -40.85344 | 15392 ft | 309 kts | 39° |
| 2026-05-07 22:07 | -20.99535 | -40.83892 | 15088 ft | 306 kts | 39° |
| 2026-05-07 22:07 | -20.97892 | -40.82454 | 14773 ft | 304 kts | 39° |
| 2026-05-07 22:08 | -20.96255 | -40.81021 | 14454 ft | 302 kts | 39° |
| 2026-05-07 22:08 | -20.94630 | -40.79598 | 14141 ft | 301 kts | 39° |
| 2026-05-07 22:08 | -20.93017 | -40.78187 | 13817 ft | 299 kts | 39° |
| 2026-05-07 22:08 | -20.91409 | -40.76781 | 13461 ft | 297 kts | 39° |
| 2026-05-07 22:09 | -20.89813 | -40.75385 | 13139 ft | 295 kts | 39° |
| 2026-05-07 22:09 | -20.88233 | -40.74005 | 12830 ft | 293 kts | 39° |
| 2026-05-07 22:09 | -20.86683 | -40.72650 | 12515 ft | 290 kts | 39° |
| 2026-05-07 22:09 | -20.85126 | -40.71290 | 12211 ft | 288 kts | 39° |
| 2026-05-07 22:10 | -20.83583 | -40.69942 | 11910 ft | 285 kts | 39° |
| 2026-05-07 22:10 | -20.82052 | -40.68605 | 11603 ft | 283 kts | 39° |
| 2026-05-07 22:10 | -20.80589 | -40.67211 | 11287 ft | 282 kts | 49° |
| 2026-05-07 22:10 | -20.79428 | -40.65518 | 10969 ft | 281 kts | 53° |
| 2026-05-07 22:11 | -20.78295 | -40.63827 | 10669 ft | 279 kts | 53° |
| 2026-05-07 22:11 | -20.77167 | -40.62150 | 10390 ft | 277 kts | 53° |
| 2026-05-07 22:11 | -20.76047 | -40.60487 | 10143 ft | 274 kts | 53° |
| 2026-05-07 22:11 | -20.74939 | -40.58844 | 9853 ft | 272 kts | 53° |
| 2026-05-07 22:12 | -20.73833 | -40.57206 | 9541 ft | 270 kts | 53° |
| 2026-05-07 22:12 | -20.72735 | -40.55580 | 9236 ft | 268 kts | 53° |
| 2026-05-07 22:12 | -20.71649 | -40.53973 | 8946 ft | 266 kts | 53° |
| 2026-05-07 22:12 | -20.70572 | -40.52378 | 8663 ft | 263 kts | 53° |
| 2026-05-07 22:13 | -20.69505 | -40.50799 | 8383 ft | 261 kts | 53° |
| 2026-05-07 22:13 | -20.68445 | -40.49232 | 8108 ft | 259 kts | 53° |
| 2026-05-07 22:13 | -20.67398 | -40.47684 | 7831 ft | 257 kts | 53° |
| 2026-05-07 22:13 | -20.66355 | -40.46142 | 7548 ft | 254 kts | 53° |
| 2026-05-07 22:14 | -20.65324 | -40.44618 | 7287 ft | 252 kts | 53° |
| 2026-05-07 22:14 | -20.64314 | -40.43125 | 7021 ft | 250 kts | 53° |
| 2026-05-07 22:14 | -20.63296 | -40.41622 | 6759 ft | 248 kts | 53° |
| 2026-05-07 22:14 | -20.62289 | -40.40134 | 6496 ft | 247 kts | 53° |
| 2026-05-07 22:15 | -20.61286 | -40.38655 | 6200 ft | 245 kts | 53° |
| 2026-05-07 22:15 | -20.60292 | -40.37187 | 5928 ft | 243 kts | 53° |
| 2026-05-07 22:15 | -20.59308 | -40.35734 | 5667 ft | 241 kts | 53° |
| 2026-05-07 22:15 | -20.58332 | -40.34295 | 5398 ft | 238 kts | 53° |
| 2026-05-07 22:16 | -20.57361 | -40.32863 | 5140 ft | 239 kts | 53° |
| 2026-05-07 22:16 | -20.56374 | -40.31408 | 4872 ft | 245 kts | 53° |
| 2026-05-07 22:16 | -20.55367 | -40.29924 | 4552 ft | 248 kts | 53° |
| 2026-05-07 22:16 | -20.54353 | -40.28428 | 4241 ft | 248 kts | 53° |
| 2026-05-07 22:17 | -20.53356 | -40.26960 | 4098 ft | 240 kts | 53° |
| 2026-05-07 22:17 | -20.52377 | -40.25566 | 4057 ft | 228 kts | 46° |
| 2026-05-07 22:17 | -20.51089 | -40.24708 | 4043 ft | 215 kts | 17° |
| 2026-05-07 22:17 | -20.49623 | -40.24606 | 4030 ft | 212 kts | 356° |
| 2026-05-07 22:18 | -20.48168 | -40.24764 | 4028 ft | 213 kts | 356° |
| 2026-05-07 22:18 | -20.45220 | -40.25135 | 3590 ft | 212 kts | 355° |
| 2026-05-07 22:18 | -20.43774 | -40.25335 | 3334 ft | 211 kts | 355° |
| 2026-05-07 22:19 | -20.42354 | -40.25535 | 3194 ft | 200 kts | 354° |
| 2026-05-07 22:19 | -20.40983 | -40.25727 | 2896 ft | 197 kts | 354° |
| 2026-05-07 22:19 | -20.39627 | -40.25921 | 2596 ft | 195 kts | 354° |
| 2026-05-07 22:19 | -20.38289 | -40.26118 | 2306 ft | 193 kts | 354° |
| 2026-05-07 22:20 | -20.36988 | -40.26311 | 2040 ft | 185 kts | 354° |
| 2026-05-07 22:20 | -20.35765 | -40.26492 | 1809 ft | 168 kts | 354° |
| 2026-05-07 22:20 | -20.34662 | -40.26654 | 1593 ft | 152 kts | 354° |
| 2026-05-07 22:20 | -20.33678 | -40.26800 | 1393 ft | 139 kts | 354° |
| 2026-05-07 22:21 | -20.32729 | -40.26941 | 1213 ft | 137 kts | 354° |
| 2026-05-07 22:21 | -20.31784 | -40.27080 | 1038 ft | 137 kts | 353° |
| 2026-05-07 22:21 | -20.30838 | -40.27222 | 867 ft | 137 kts | 353° |
| 2026-05-07 22:21 | -20.29899 | -40.27360 | 666 ft | 136 kts | 353° |
| 2026-05-07 22:22 | -20.28967 | -40.27492 | 499 ft | 135 kts | 353° |
| 2026-05-07 22:22 | -20.28032 | -40.27632 | 348 ft | 136 kts | 352° |
| 2026-05-07 22:22 | -20.27101 | -40.27772 | 217 ft | 135 kts | 352° |
| 2026-05-07 22:22 | -20.26164 | -40.27920 | 94 ft | 136 kts | 352° |
| 2026-05-07 22:23 | -20.25308 | -40.28041 | 35 ft | 82 kts | 352° |
| 2026-05-07 22:23 | -20.25186 | -40.28060 | 33 ft | 1 kts | 345° |
| 2026-05-07 22:23 | -20.25168 | -40.28066 | 32 ft | 0 kts | 343° |
| 2026-05-07 22:23 | -20.25119 | -40.28085 | 31 ft | 15 kts | 337° |
| 2026-05-07 22:24 | -20.25048 | -40.28130 | 30 ft | 4 kts | 310° |
| 2026-05-07 22:24 | -20.25038 | -40.28164 | 29 ft | 0 kts | 268° |
| 2026-05-07 22:24 | -20.25042 | -40.28176 | 29 ft | 5 kts | 246° |
| 2026-05-07 22:24 | -20.25093 | -40.28219 | 27 ft | 13 kts | 212° |
| 2026-05-07 22:25 | -20.25197 | -40.28231 | 25 ft | 17 kts | 175° |
| 2026-05-07 22:25 | -20.25312 | -40.28214 | 28 ft | 3 kts | 172° |
| 2026-05-07 22:25 | -20.25314 | -40.28213 | 28 ft | 1 kts | 172° |
| 2026-05-07 22:25 | -20.25326 | -40.28212 | 28 ft | 3 kts | 173° |
| 2026-05-07 22:26 | -20.25357 | -40.28207 | 29 ft | 7 kts | 172° |
| 2026-05-07 22:26 | -20.25425 | -40.28198 | 31 ft | 13 kts | 173° |
| 2026-05-07 22:26 | -20.25534 | -40.28181 | 33 ft | 18 kts | 172° |
| 2026-05-07 22:26 | -20.25671 | -40.28161 | 35 ft | 21 kts | 172° |
| 2026-05-07 22:27 | -20.25826 | -40.28139 | 37 ft | 23 kts | 173° |
| 2026-05-07 22:27 | -20.25994 | -40.28115 | 39 ft | 25 kts | 172° |
| 2026-05-07 22:27 | -20.26176 | -40.28090 | 40 ft | 27 kts | 173° |
| 2026-05-07 22:27 | -20.26305 | -40.28084 | 41 ft | 13 kts | 204° |
| 2026-05-07 22:28 | -20.26363 | -40.28116 | 40 ft | 5 kts | 210° |
| 2026-05-07 22:28 | -20.26402 | -40.28129 | 42 ft | 0 kts | 197° |
| 2026-05-07 22:28 | -20.26410 | -40.28135 | 42 ft | 2 kts | 219° |
| 2026-05-07 22:28 | -20.26420 | -40.28161 | 41 ft | 6 kts | 257° |
| 2026-05-07 22:29 | -20.26423 | -40.28176 | 41 ft | 0 kts | 259° |
| 2026-05-07 22:29 | -20.26423 | -40.28179 | 41 ft | 0 kts | 258° |